AirNav   Duncan Aviation - Near you to keep you flying
 
 1030 users online  

09LL Pine Hill Airport
Capron, Illinois, USA

GOING TO CAPRON?


FAA INFORMATION EFFECTIVE 01 DECEMBER 2022

Location

FAA Identifier: 09LL
Lat/Long: 42-28-05.0610N 088-44-35.3710W
42-28.084350N 088-44.589517W
42.4680725,-88.7431586
(estimated)
Elevation: 1000 ft. / 305 m (estimated)
Variation: 00W (1985)
From city: 3 miles N of CAPRON, IL
Time zone: UTC -6 (UTC -5 during Daylight Saving Time)
Zip code: 61012

Airport Operations

Airport use: Private use. Permission required prior to landing
Activation date: 07/1977
Control tower: no
ARTCC: CHICAGO CENTER
FSS: KANKAKEE FLIGHT SERVICE STATION
Attendance: UNATNDD
Wind indicator: yes
Segmented circle: no

Airport Communications

WX AWOS-3 at JVL (16 nm NW): PHONE 608-758-1723

Nearby radio navigation aids

VOR radial/distance  VOR name  Freq  Var
JVLr106/16.9JANESVILLE VOR/DME114.3003E
OBKr295/38.1NORTHBROOK VOR/DME113.0002W
DPAr331/38.8DUPAGE VOR/DME108.4002E

Airport Services

Runway Information

Runway 17/35

Dimensions: 2300 x 80 ft. / 701 x 24 m
Surface: turf
RUNWAY 17  RUNWAY 35
Traffic pattern: leftleft
Obstructions: 30 ft. trees, 627 ft. from runwaynone

Airport Ownership and Management from official FAA records

Ownership: Privately-owned
Owner: ALLEN L. LARSON
21543 CAPRON RD
CAPRON, IL 61012
Phone 815-494-8702
Manager: ALLEN L. LARSON
21543 CAPRON RD
CAPRON, IL 61012
Phone 815-494-8702

Airport Operational Statistics

Aircraft based on the field: 2
Single engine airplanes: 1
Multi engine airplanes: 1
    

Additional Remarks

FOR CD CTC CHICAGO ARTCC AT 630-906-8921.

Instrument Procedures

There are no published instrument procedures at 09LL.

Some nearby airports with instrument procedures:

C77 - Poplar Grove Airport (10 nm SW)
44C - Beloit Airport (10 nm W)
KJVL - Southern Wisconsin Regional Airport (16 nm NW)
10C - Galt Field Airport (17 nm E)
C02 - Grand Geneva Resort Airport (18 nm NE)
 
Loc | Ops | Rwys | IFR | FBO | Links
Com | Nav | Svcs | Stats | Notes
Area around 09LL (Pine Hill Airport)
 
Road maps at: MapQuest Bing Google
 
Aerial photo
No photo
 
Sectional chart

 
Airport distance calculator
Flying to Pine Hill Airport? Find the distance to fly.

From to 09LL

Sunrise and sunset
Times for 04-Dec-2022
 Local
(UTC-6)
 Zulu
(UTC)
Morning civil twilight06:3712:37
Sunrise07:0913:09
Sunset16:2122:21
Evening civil twilight16:5322:53

Current date and time
Zulu (UTC)  05-Dec-2022 00:19:19
Local (UTC-6)  04-Dec-2022 18:19:19
 
METAR
KJVL 
15nm NW 
042345Z 22005KT 10SM CLR M01/M09 A3000
KRFD 
23nm SW 
042354Z 17005KT 10SM FEW250 M01/M09 A3003 RMK AO2 SLP179 T10061094 10039 21033 56015 $
KBUU 
23nm NE 
042355Z AUTO 21005KT 10SM CLR M02/M08 A3000 RMK AO2 T10161085 10026 21021 PWINO
K57C 
26nm NE 
042355Z AUTO 24005KT 10SM CLR M01/M08 A2999 RMK AO2 T10061085 10020 21006
TAF
KJVL 
15nm NW 
042039Z 0421/0518 22011KT P6SM SKC FM051500 23010KT P6SM SCT080
NOTAMs
Click for the latest NOTAMs
NOTAMs are issued by the DoD/FAA and will open in a separate window not controlled by AirNav.

 

 
 

Would you like to see your business listed on this page?

 If your business provides an interesting product or service to pilots, flight crews, aircraft, or users of the Pine Hill Airport, you should consider listing it here.  To start the listing process, click on the button below
 
Add a business
 

Other Pages about Pine Hill Airport

Update a link
 
Copyright © AirNav, LLC. All rights reserved. Privacy Policy  Contact